Time;durP1;ratioP1;P1;durP2;ratioP2;P2;SDS_P1;SDS_P2;PMS_P1;PMS_P2;Temp;Humidity;BMP_temperature;BMP_pressure;BME280_temperature;BME280_humidity;BME280_pressure;Samples;Min_cycle;Max_cycle;Signal;HPM_P1;HPM_P2
2023/11/19 00:03:54;;;;;;;37.60;15.10;;;;;;;2.73;85.60;101026.02;680765;1260;140812;-81
2023/11/19 00:19:31;;;;;;;41.10;14.60;;;;;;;2.61;85.82;101000.79;677217;1260;140015;-81
2023/11/19 00:35:02;;;;;;;29.40;13.30;;;;;;;2.67;85.11;100997.24;681551;1261;139405;-81
2023/11/19 00:50:25;;;;;;;23.10;10.20;;;;;;;2.49;84.36;100975.05;678691;1260;140084;-81
2023/11/19 01:06:06;;;;;;;26.10;13.10;;;;;;;2.43;84.33;100962.20;682096;1260;139655;-81
2023/11/19 01:21:43;;;;;;;25.00;11.20;;;;;;;2.32;84.29;100948.66;675181;1265;140060;-80
2023/11/19 01:37:20;;;;;;;24.30;10.80;;;;;;;2.25;84.04;100926.85;678287;1273;139914;-81
2023/11/19 01:53:00;;;;;;;30.70;14.40;;;;;;;2.29;83.99;100907.35;677891;1260;140617;-81
2023/11/19 02:08:38;;;;;;;26.10;11.90;;;;;;;2.25;83.94;100899.94;677032;1264;140127;-81
2023/11/19 02:24:18;;;;;;;28.20;12.40;;;;;;;2.18;83.79;100890.58;678773;1260;139772;-81
2023/11/19 02:39:56;;;;;;;27.30;14.40;;;;;;;2.30;84.13;100853.62;680894;1262;141509;-80
2023/11/19 02:55:37;;;;;;;30.50;13.50;;;;;;;2.31;84.42;100823.05;679522;1260;140555;-81
2023/11/19 03:11:14;;;;;;;29.30;12.50;;;;;;;2.03;84.54;100781.50;673364;1270;139240;-81
2023/11/19 03:26:55;;;;;;;64.80;25.00;;;;;;;1.65;84.64;100747.95;680877;1258;139264;-79
2023/11/19 03:42:32;;;;;;;35.90;16.80;;;;;;;1.25;84.78;100732.73;675489;1260;139665;-81
2023/11/19 03:58:09;;;;;;;45.60;19.90;;;;;;;0.96;85.49;100694.51;678472;1263;140778;-79
2023/11/19 04:13:47;;;;;;;51.70;21.30;;;;;;;0.84;86.02;100670.52;677530;1269;140593;-79
2023/11/19 04:29:24;;;;;;;54.40;20.30;;;;;;;0.72;85.82;100639.52;679732;1261;140114;-79
2023/11/19 04:45:01;;;;;;;52.70;20.80;;;;;;;0.71;86.72;100609.23;679821;1257;140609;-79
2023/11/19 05:00:38;;;;;;;50.60;21.30;;;;;;;1.08;88.20;100595.30;676372;1260;139435;-80
2023/11/19 05:16:15;;;;;;;;;;;;;;;1.25;88.38;100565.78;680457;1257;139868;-80
2023/11/19 05:31:52;;;;;;;35.40;14.30;;;;;;;1.28;88.70;100546.02;678573;1263;125668;-80
2023/11/19 05:47:29;;;;;;;56.70;23.00;;;;;;;1.19;89.67;100533.11;673661;1261;139853;-80
2023/11/19 06:03:06;;;;;;;;;;;;;;;1.16;90.37;100508.48;677940;1263;139594;-81
2023/11/19 06:18:43;;;;;;;89.50;37.30;;;;;;;1.19;91.51;100476.24;676563;1260;125609;-81
2023/11/19 06:34:20;;;;;;;93.10;31.20;;;;;;;1.16;92.28;100456.58;681831;1263;140324;-80
2023/11/19 06:49:57;;;;;;;86.80;31.90;;;;;;;1.26;92.62;100438.02;678544;1258;140194;-80
2023/11/19 07:05:35;;;;;;;102.20;38.20;;;;;;;1.32;93.34;100423.81;679327;1257;140260;-80
2023/11/19 07:21:13;;;;;;;169.70;59.20;;;;;;;1.25;94.93;100414.15;678267;1259;140217;-81
2023/11/19 07:36:50;;;;;;;233.00;79.10;;;;;;;1.46;96.04;100401.27;680227;1261;139875;-81
2023/11/19 07:52:28;;;;;;;172.80;61.30;;;;;;;1.58;97.14;100373.23;677710;1257;141761;-81
2023/11/19 08:08:05;;;;;;;172.60;52.10;;;;;;;1.58;98.00;100350.02;669971;1260;140014;-82
2023/11/19 08:23:42;;;;;;;;;;;;;;;1.73;97.81;100336.11;679048;1256;140945;-81
2023/11/19 08:39:21;;;;;;;124.00;42.90;;;;;;;1.78;98.98;100318.80;676697;1262;126645;-80
2023/11/19 08:54:57;;;;;;;324.40;114.70;;;;;;;2.08;98.30;100294.48;680542;1263;140378;-80
2023/11/19 09:10:34;;;;;;;135.50;44.90;;;;;;;2.12;98.26;100270.33;681089;1259;139283;-81
2023/11/19 09:26:12;;;;;;;131.30;45.30;;;;;;;2.32;98.54;100239.55;681961;1259;140575;-81
2023/11/19 09:41:50;;;;;;;293.20;98.80;;;;;;;2.56;97.63;100208.21;681417;1257;139916;-81
2023/11/19 09:57:28;;;;;;;255.50;88.50;;;;;;;2.73;97.47;100184.50;680674;1261;140120;-81
2023/11/19 10:13:08;;;;;;;193.00;59.90;;;;;;;2.93;96.53;100150.66;679066;1257;139948;-81
2023/11/19 10:28:48;;;;;;;178.60;58.40;;;;;;;3.16;96.05;100109.61;673943;1260;140730;-81
2023/11/19 10:44:40;;;;;;;112.70;37.10;;;;;;;3.25;94.89;100083.49;678146;1260;140811;-81
2023/11/19 11:00:22;;;;;;;737.40;226.50;;;;;;;3.24;94.21;100054.86;678412;1273;140147;-80
2023/11/19 11:16:01;;;;;;;118.60;44.40;;;;;;;3.33;93.87;100022.67;673146;1273;140418;-81
2023/11/19 11:31:50;;;;;;;197.90;66.80;;;;;;;3.39;93.15;100001.37;678478;1260;140391;-81
2023/11/19 11:47:27;;;;;;;122.70;51.90;;;;;;;3.41;93.06;99974.08;677966;1257;141230;-81
2023/11/19 12:03:07;;;;;;;90.00;37.10;;;;;;;3.42;92.78;99945.16;679261;1261;140105;-82
2023/11/19 12:18:46;;;;;;;261.80;87.60;;;;;;;3.55;91.73;99921.84;674291;1260;139874;-81
2023/11/19 12:34:23;;;;;;;107.50;42.20;;;;;;;3.57;91.18;99902.34;679148;1260;139925;-82
2023/11/19 12:50:04;;;;;;;109.40;44.30;;;;;;;3.26;92.46;99890.04;675927;1259;139483;-82
2023/11/19 13:05:41;;;;;;;134.50;47.80;;;;;;;3.04;93.98;99849.41;678037;1261;140264;-82
2023/11/19 13:21:18;;;;;;;113.60;43.50;;;;;;;2.89;94.57;99792.63;679430;1265;142297;-82
2023/11/19 13:36:56;;;;;;;81.40;34.70;;;;;;;2.75;95.21;99750.37;679943;1258;140183;-82
2023/11/19 13:52:33;;;;;;;156.10;53.30;;;;;;;2.72;95.63;99730.67;678314;1257;140944;-82
2023/11/19 14:08:11;;;;;;;43.90;21.60;;;;;;;2.76;95.40;99721.42;682024;1259;139927;-83
2023/11/19 14:23:55;;;;;;;63.20;25.60;;;;;;;2.66;96.31;99723.83;680136;1261;139174;-80
2023/11/19 14:39:32;;;;;;;74.40;30.70;;;;;;;2.68;97.27;99731.25;678035;1260;139464;-82
2023/11/19 14:55:11;;;;;;;111.90;42.00;;;;;;;2.71;97.31;99705.21;680462;1260;139029;-81
2023/11/19 15:10:48;;;;;;;104.20;38.00;;;;;;;2.66;97.64;99688.91;676038;1270;139127;-82
2023/11/19 15:26:25;;;;;;;229.30;69.80;;;;;;;2.60;97.81;99661.88;678377;1267;139343;-82
2023/11/19 15:42:02;;;;;;;190.60;64.70;;;;;;;2.61;98.00;99644.38;680188;1260;139413;-80
2023/11/19 15:57:40;;;;;;;166.20;55.50;;;;;;;2.65;98.01;99636.02;678392;1257;139466;-82
2023/11/19 16:13:17;;;;;;;76.80;31.40;;;;;;;2.76;97.69;99629.56;679812;1260;139264;-82
2023/11/19 16:28:54;;;;;;;58.00;25.00;;;;;;;2.87;97.74;99632.66;677045;1262;138915;-81
2023/11/19 16:44:32;;;;;;;116.00;38.30;;;;;;;2.83;98.12;99620.46;676850;1260;138677;-81
2023/11/19 17:00:11;;;;;;;128.20;52.00;;;;;;;2.77;98.76;99599.48;674305;1260;140206;-81
2023/11/19 17:15:48;;;;;;;75.40;31.30;;;;;;;2.76;98.65;99584.52;678087;1269;139777;-83
2023/11/19 17:31:25;;;;;;;77.90;29.50;;;;;;;2.80;98.96;99556.28;679761;1259;139221;-83
2023/11/19 17:47:22;;;;;;;56.50;23.90;;;;;;;2.81;99.31;99548.21;679896;1263;140252;-82
2023/11/19 18:02:59;;;;;;;56.40;23.40;;;;;;;2.92;99.23;99537.14;674169;1259;139424;-83
2023/11/19 18:18:36;;;;;;;106.50;49.80;;;;;;;2.98;99.31;99525.33;674285;1269;139910;-83
2023/11/19 18:34:13;;;;;;;66.90;27.10;;;;;;;3.05;99.67;99521.91;674155;1261;139901;-82
2023/11/19 18:49:51;;;;;;;50.40;23.10;;;;;;;3.14;99.41;99510.95;679033;1270;140013;-82
2023/11/19 19:05:27;;;;;;;53.00;23.00;;;;;;;3.07;99.79;99501.94;675915;1260;138877;-83
2023/11/19 19:21:04;;;;;;;99.60;35.40;;;;;;;3.01;99.99;99493.85;675726;1264;139884;-83
2023/11/19 19:36:41;;;;;;;89.30;37.10;;;;;;;2.95;100.00;99493.07;680753;1257;139819;-82
2023/11/19 19:52:18;;;;;;;81.90;31.40;;;;;;;3.05;99.97;99489.12;677458;1263;139599;-80
2023/11/19 20:08:06;;;;;;;105.30;35.30;;;;;;;3.14;100.00;99484.48;666407;1261;10217138;-81
2023/11/19 20:23:42;;;;;;;98.30;37.10;;;;;;;3.14;99.84;99479.70;676964;1269;140700;-80
2023/11/19 20:39:19;;;;;;;183.40;57.90;;;;;;;3.11;99.94;99473.16;675083;1260;138807;-80
2023/11/19 20:54:57;;;;;;;63.10;27.90;;;;;;;3.29;99.83;99459.94;675717;1260;22545;-81
2023/11/19 21:10:34;;;;;;;55.60;23.60;;;;;;;3.13;100.00;99459.66;676591;1260;138577;-79
2023/11/19 21:26:13;;;;;;;51.40;19.40;;;;;;;3.11;100.00;99447.41;675650;1260;139393;-80
2023/11/19 21:41:54;;;;;;;50.20;20.50;;;;;;;3.17;100.00;99447.64;680668;1262;139458;-79
2023/11/19 21:57:30;;;;;;;60.80;24.10;;;;;;;3.24;100.00;99446.86;679991;1257;139631;-81
2023/11/19 22:13:08;;;;;;;92.40;29.80;;;;;;;3.21;100.00;99428.38;674386;1261;22664;-79
2023/11/19 22:28:45;;;;;;;45.70;19.90;;;;;;;3.20;100.00;99423.62;674085;1256;139225;-79
2023/11/19 22:44:23;;;;;;;49.30;20.80;;;;;;;3.28;100.00;99425.13;674787;1258;22584;-79
2023/11/19 23:00:00;;;;;;;41.10;19.00;;;;;;;3.26;100.00;99420.60;677688;1261;139065;-80
2023/11/19 23:15:37;;;;;;;44.40;19.60;;;;;;;3.33;100.00;99420.46;674160;1273;138919;-79
2023/11/19 23:31:16;;;;;;;50.60;22.50;;;;;;;3.30;100.00;99417.91;676405;1257;139011;-79
2023/11/19 23:46:53;;;;;;;42.90;21.60;;;;;;;3.39;100.00;99407.61;675430;1262;140576;-79
